sensor_id;sensor_type;location;lat;lon;timestamp;P1;durP1;ratioP1;P2;durP2;ratioP2
71730;SDS011;65964;43.496;3.710;2023-04-10T00:01:39;7.43;;;3.25;;
71730;SDS011;65964;43.496;3.710;2023-04-10T00:04:05;9.55;;;3.53;;
71730;SDS011;65964;43.496;3.710;2023-04-10T00:06:31;8.43;;;3.25;;
71730;SDS011;65964;43.496;3.710;2023-04-10T00:08:58;5.88;;;3.22;;
71730;SDS011;65964;43.496;3.710;2023-04-10T00:11:24;7.47;;;3.30;;
71730;SDS011;65964;43.496;3.710;2023-04-10T00:13:51;6.28;;;2.88;;
71730;SDS011;65964;43.496;3.710;2023-04-10T00:16:17;7.15;;;3.28;;
71730;SDS011;65964;43.496;3.710;2023-04-10T00:18:43;7.22;;;2.88;;
71730;SDS011;65964;43.496;3.710;2023-04-10T00:21:09;5.70;;;3.25;;
71730;SDS011;65964;43.496;3.710;2023-04-10T00:23:36;6.95;;;3.20;;
71730;SDS011;65964;43.496;3.710;2023-04-10T00:26:02;7.68;;;3.10;;
71730;SDS011;65964;43.496;3.710;2023-04-10T00:28:28;5.93;;;2.92;;
71730;SDS011;65964;43.496;3.710;2023-04-10T00:30:54;8.50;;;3.60;;
71730;SDS011;65964;43.496;3.710;2023-04-10T00:33:20;8.45;;;4.07;;
71730;SDS011;65964;43.496;3.710;2023-04-10T00:35:46;8.93;;;3.47;;
71730;SDS011;65964;43.496;3.710;2023-04-10T00:38:12;6.60;;;3.25;;
71730;SDS011;65964;43.496;3.710;2023-04-10T00:40:38;8.18;;;3.30;;
71730;SDS011;65964;43.496;3.710;2023-04-10T00:43:04;5.50;;;3.00;;
71730;SDS011;65964;43.496;3.710;2023-04-10T00:45:30;6.32;;;3.35;;
71730;SDS011;65964;43.496;3.710;2023-04-10T00:47:56;5.05;;;3.05;;
71730;SDS011;65964;43.496;3.710;2023-04-10T00:50:22;7.38;;;3.40;;
71730;SDS011;65964;43.496;3.710;2023-04-10T00:52:49;8.32;;;3.22;;
71730;SDS011;65964;43.496;3.710;2023-04-10T00:55:15;7.82;;;3.20;;
71730;SDS011;65964;43.496;3.710;2023-04-10T00:57:45;6.75;;;2.85;;
71730;SDS011;65964;43.496;3.710;2023-04-10T01:00:14;6.65;;;2.83;;
71730;SDS011;65964;43.496;3.710;2023-04-10T01:02:41;4.40;;;2.50;;
71730;SDS011;65964;43.496;3.710;2023-04-10T01:05:07;4.43;;;2.60;;
71730;SDS011;65964;43.496;3.710;2023-04-10T01:15:12;5.07;;;2.90;;
71730;SDS011;65964;43.496;3.710;2023-04-10T01:20:11;6.32;;;2.70;;
71730;SDS011;65964;43.496;3.710;2023-04-10T01:25:29;7.40;;;3.40;;
71730;SDS011;65964;43.496;3.710;2023-04-10T01:30:33;6.47;;;3.20;;
71730;SDS011;65964;43.496;3.710;2023-04-10T01:33:00;5.47;;;2.78;;
71730;SDS011;65964;43.496;3.710;2023-04-10T01:35:27;7.10;;;2.92;;
71730;SDS011;65964;43.496;3.710;2023-04-10T01:37:54;7.07;;;3.08;;
71730;SDS011;65964;43.496;3.710;2023-04-10T01:40:20;5.32;;;3.05;;
71730;SDS011;65964;43.496;3.710;2023-04-10T01:42:49;8.07;;;3.30;;
71730;SDS011;65964;43.496;3.710;2023-04-10T01:45:21;6.28;;;3.15;;
71730;SDS011;65964;43.496;3.710;2023-04-10T01:47:48;7.00;;;3.30;;
71730;SDS011;65964;43.496;3.710;2023-04-10T01:50:15;6.80;;;2.90;;
71730;SDS011;65964;43.496;3.710;2023-04-10T01:52:41;5.43;;;2.78;;
71730;SDS011;65964;43.496;3.710;2023-04-10T01:55:08;6.38;;;2.90;;
71730;SDS011;65964;43.496;3.710;2023-04-10T01:57:34;5.53;;;2.95;;
71730;SDS011;65964;43.496;3.710;2023-04-10T02:00:03;5.93;;;2.72;;
71730;SDS011;65964;43.496;3.710;2023-04-10T02:02:30;5.47;;;2.90;;
71730;SDS011;65964;43.496;3.710;2023-04-10T02:04:56;6.40;;;2.80;;
71730;SDS011;65964;43.496;3.710;2023-04-10T02:07:35;6.25;;;2.80;;
71730;SDS011;65964;43.496;3.710;2023-04-10T02:13:22;7.53;;;4.05;;
71730;SDS011;65964;43.496;3.710;2023-04-10T02:15:23;7.25;;;3.70;;
71730;SDS011;65964;43.496;3.710;2023-04-10T02:17:51;8.80;;;3.20;;
71730;SDS011;65964;43.496;3.710;2023-04-10T02:20:17;5.38;;;2.70;;
71730;SDS011;65964;43.496;3.710;2023-04-10T02:22:43;6.00;;;2.72;;
71730;SDS011;65964;43.496;3.710;2023-04-10T02:25:10;4.75;;;2.85;;
71730;SDS011;65964;43.496;3.710;2023-04-10T02:27:36;7.88;;;3.17;;
71730;SDS011;65964;43.496;3.710;2023-04-10T02:30:03;6.80;;;3.20;;
71730;SDS011;65964;43.496;3.710;2023-04-10T02:32:29;6.18;;;3.40;;
71730;SDS011;65964;43.496;3.710;2023-04-10T02:34:57;5.75;;;3.08;;
71730;SDS011;65964;43.496;3.710;2023-04-10T02:37:23;5.35;;;2.78;;
71730;SDS011;65964;43.496;3.710;2023-04-10T02:39:50;6.07;;;2.88;;
71730;SDS011;65964;43.496;3.710;2023-04-10T02:42:16;4.22;;;2.58;;
71730;SDS011;65964;43.496;3.710;2023-04-10T02:44:42;5.93;;;2.55;;
71730;SDS011;65964;43.496;3.710;2023-04-10T02:47:08;3.75;;;2.70;;
71730;SDS011;65964;43.496;3.710;2023-04-10T02:49:34;5.63;;;2.83;;
71730;SDS011;65964;43.496;3.710;2023-04-10T02:52:00;6.93;;;2.70;;
71730;SDS011;65964;43.496;3.710;2023-04-10T02:54:27;6.15;;;2.78;;
71730;SDS011;65964;43.496;3.710;2023-04-10T02:56:53;7.35;;;2.80;;
71730;SDS011;65964;43.496;3.710;2023-04-10T02:59:19;4.95;;;2.55;;
71730;SDS011;65964;43.496;3.710;2023-04-10T03:01:45;6.63;;;2.90;;
71730;SDS011;65964;43.496;3.710;2023-04-10T03:04:12;4.15;;;2.40;;
71730;SDS011;65964;43.496;3.710;2023-04-10T03:06:38;5.75;;;2.50;;
71730;SDS011;65964;43.496;3.710;2023-04-10T03:09:04;4.80;;;2.70;;
71730;SDS011;65964;43.496;3.710;2023-04-10T03:11:30;5.72;;;2.65;;
71730;SDS011;65964;43.496;3.710;2023-04-10T03:13:56;7.53;;;2.28;;
71730;SDS011;65964;43.496;3.710;2023-04-10T03:16:22;5.22;;;2.22;;
71730;SDS011;65964;43.496;3.710;2023-04-10T03:18:48;3.53;;;2.30;;
71730;SDS011;65964;43.496;3.710;2023-04-10T03:21:14;5.35;;;2.67;;
71730;SDS011;65964;43.496;3.710;2023-04-10T03:23:40;4.13;;;2.40;;
71730;SDS011;65964;43.496;3.710;2023-04-10T03:26:06;4.40;;;2.35;;
71730;SDS011;65964;43.496;3.710;2023-04-10T03:28:32;4.55;;;2.47;;
71730;SDS011;65964;43.496;3.710;2023-04-10T03:31:00;4.30;;;2.50;;
71730;SDS011;65964;43.496;3.710;2023-04-10T03:33:27;5.00;;;2.28;;
71730;SDS011;65964;43.496;3.710;2023-04-10T03:35:53;4.00;;;2.40;;
71730;SDS011;65964;43.496;3.710;2023-04-10T03:38:19;5.65;;;2.60;;
71730;SDS011;65964;43.496;3.710;2023-04-10T03:40:45;4.80;;;2.40;;
71730;SDS011;65964;43.496;3.710;2023-04-10T03:43:11;3.55;;;2.30;;
71730;SDS011;65964;43.496;3.710;2023-04-10T03:45:37;5.82;;;2.88;;
71730;SDS011;65964;43.496;3.710;2023-04-10T03:48:03;6.20;;;2.55;;
71730;SDS011;65964;43.496;3.710;2023-04-10T03:50:29;5.40;;;2.40;;
71730;SDS011;65964;43.496;3.710;2023-04-10T03:52:55;4.43;;;2.22;;
71730;SDS011;65964;43.496;3.710;2023-04-10T03:55:21;4.20;;;2.35;;
71730;SDS011;65964;43.496;3.710;2023-04-10T03:57:47;4.85;;;2.40;;
71730;SDS011;65964;43.496;3.710;2023-04-10T04:00:14;5.30;;;2.60;;
71730;SDS011;65964;43.496;3.710;2023-04-10T04:02:40;5.22;;;2.42;;
71730;SDS011;65964;43.496;3.710;2023-04-10T04:05:06;5.57;;;2.53;;
71730;SDS011;65964;43.496;3.710;2023-04-10T04:07:32;8.38;;;2.60;;
71730;SDS011;65964;43.496;3.710;2023-04-10T04:09:58;8.70;;;2.90;;
71730;SDS011;65964;43.496;3.710;2023-04-10T04:12:25;7.55;;;3.03;;
71730;SDS011;65964;43.496;3.710;2023-04-10T04:14:51;6.80;;;3.00;;
71730;SDS011;65964;43.496;3.710;2023-04-10T04:17:17;6.45;;;2.92;;
71730;SDS011;65964;43.496;3.710;2023-04-10T04:19:43;4.90;;;2.42;;
71730;SDS011;65964;43.496;3.710;2023-04-10T04:22:11;5.05;;;2.72;;
71730;SDS011;65964;43.496;3.710;2023-04-10T04:24:38;5.78;;;2.83;;
71730;SDS011;65964;43.496;3.710;2023-04-10T04:27:04;5.40;;;2.45;;
71730;SDS011;65964;43.496;3.710;2023-04-10T04:29:30;4.50;;;2.33;;
71730;SDS011;65964;43.496;3.710;2023-04-10T04:31:56;3.92;;;2.40;;
71730;SDS011;65964;43.496;3.710;2023-04-10T04:34:22;4.82;;;2.40;;
71730;SDS011;65964;43.496;3.710;2023-04-10T04:36:48;4.30;;;2.35;;
71730;SDS011;65964;43.496;3.710;2023-04-10T04:39:14;4.63;;;2.22;;
71730;SDS011;65964;43.496;3.710;2023-04-10T04:41:40;11.40;;;3.33;;
71730;SDS011;65964;43.496;3.710;2023-04-10T04:44:06;6.68;;;2.67;;
71730;SDS011;65964;43.496;3.710;2023-04-10T04:46:32;4.93;;;2.70;;
71730;SDS011;65964;43.496;3.710;2023-04-10T04:48:58;5.07;;;2.92;;
71730;SDS011;65964;43.496;3.710;2023-04-10T04:51:24;5.55;;;2.70;;
71730;SDS011;65964;43.496;3.710;2023-04-10T04:53:51;4.80;;;2.72;;
71730;SDS011;65964;43.496;3.710;2023-04-10T04:56:17;5.72;;;3.20;;
71730;SDS011;65964;43.496;3.710;2023-04-10T04:58:43;8.85;;;3.03;;
71730;SDS011;65964;43.496;3.710;2023-04-10T05:01:09;4.30;;;2.72;;
71730;SDS011;65964;43.496;3.710;2023-04-10T05:03:35;6.72;;;3.10;;
71730;SDS011;65964;43.496;3.710;2023-04-10T05:06:01;6.32;;;2.67;;
71730;SDS011;65964;43.496;3.710;2023-04-10T05:08:27;4.75;;;2.25;;
71730;SDS011;65964;43.496;3.710;2023-04-10T05:10:53;4.57;;;2.10;;
71730;SDS011;65964;43.496;3.710;2023-04-10T05:13:19;6.53;;;2.78;;
71730;SDS011;65964;43.496;3.710;2023-04-10T05:15:45;10.68;;;2.70;;
71730;SDS011;65964;43.496;3.710;2023-04-10T05:18:11;8.10;;;2.80;;
71730;SDS011;65964;43.496;3.710;2023-04-10T05:20:38;6.20;;;2.90;;
71730;SDS011;65964;43.496;3.710;2023-04-10T05:23:04;5.43;;;2.53;;
71730;SDS011;65964;43.496;3.710;2023-04-10T05:25:30;5.95;;;2.60;;
71730;SDS011;65964;43.496;3.710;2023-04-10T05:27:56;7.15;;;2.80;;
71730;SDS011;65964;43.496;3.710;2023-04-10T05:30:22;5.50;;;2.90;;
71730;SDS011;65964;43.496;3.710;2023-04-10T05:32:48;7.18;;;2.75;;
71730;SDS011;65964;43.496;3.710;2023-04-10T05:35:14;6.93;;;3.05;;
71730;SDS011;65964;43.496;3.710;2023-04-10T05:37:41;7.68;;;3.08;;
71730;SDS011;65964;43.496;3.710;2023-04-10T05:40:07;5.55;;;2.70;;
71730;SDS011;65964;43.496;3.710;2023-04-10T05:42:33;4.32;;;2.60;;
71730;SDS011;65964;43.496;3.710;2023-04-10T05:44:59;7.95;;;3.28;;
71730;SDS011;65964;43.496;3.710;2023-04-10T05:47:25;5.43;;;2.53;;
71730;SDS011;65964;43.496;3.710;2023-04-10T05:49:51;7.45;;;3.03;;
71730;SDS011;65964;43.496;3.710;2023-04-10T05:52:17;6.18;;;2.40;;
71730;SDS011;65964;43.496;3.710;2023-04-10T05:54:43;5.68;;;2.60;;
71730;SDS011;65964;43.496;3.710;2023-04-10T05:57:09;5.68;;;2.80;;
71730;SDS011;65964;43.496;3.710;2023-04-10T05:59:35;8.88;;;2.90;;
71730;SDS011;65964;43.496;3.710;2023-04-10T06:02:01;8.45;;;3.30;;
71730;SDS011;65964;43.496;3.710;2023-04-10T06:04:27;8.07;;;3.10;;
71730;SDS011;65964;43.496;3.710;2023-04-10T06:06:53;9.60;;;3.53;;
71730;SDS011;65964;43.496;3.710;2023-04-10T06:09:19;7.53;;;3.72;;
71730;SDS011;65964;43.496;3.710;2023-04-10T06:11:45;12.25;;;5.35;;
71730;SDS011;65964;43.496;3.710;2023-04-10T06:14:11;11.52;;;5.07;;
71730;SDS011;65964;43.496;3.710;2023-04-10T06:16:37;11.88;;;5.57;;
71730;SDS011;65964;43.496;3.710;2023-04-10T06:19:03;9.20;;;4.07;;
71730;SDS011;65964;43.496;3.710;2023-04-10T06:21:29;8.80;;;4.25;;
71730;SDS011;65964;43.496;3.710;2023-04-10T06:23:56;7.70;;;3.38;;
71730;SDS011;65964;43.496;3.710;2023-04-10T06:26:23;7.43;;;3.00;;
71730;SDS011;65964;43.496;3.710;2023-04-10T06:28:49;6.20;;;2.97;;
71730;SDS011;65964;43.496;3.710;2023-04-10T06:31:17;7.28;;;2.70;;
71730;SDS011;65964;43.496;3.710;2023-04-10T06:33:45;6.00;;;2.78;;
71730;SDS011;65964;43.496;3.710;2023-04-10T06:36:11;4.88;;;2.70;;
71730;SDS011;65964;43.496;3.710;2023-04-10T06:38:37;3.97;;;2.50;;
71730;SDS011;65964;43.496;3.710;2023-04-10T06:41:04;4.80;;;2.47;;
71730;SDS011;65964;43.496;3.710;2023-04-10T06:43:32;8.10;;;3.00;;
71730;SDS011;65964;43.496;3.710;2023-04-10T06:45:58;6.40;;;2.83;;
71730;SDS011;65964;43.496;3.710;2023-04-10T06:48:24;5.68;;;2.53;;
71730;SDS011;65964;43.496;3.710;2023-04-10T06:50:50;6.00;;;2.70;;
71730;SDS011;65964;43.496;3.710;2023-04-10T06:53:16;12.68;;;3.95;;
71730;SDS011;65964;43.496;3.710;2023-04-10T06:55:42;12.50;;;5.85;;
71730;SDS011;65964;43.496;3.710;2023-04-10T06:58:08;8.35;;;3.70;;
71730;SDS011;65964;43.496;3.710;2023-04-10T07:00:34;8.65;;;3.80;;
71730;SDS011;65964;43.496;3.710;2023-04-10T07:03:00;14.02;;;5.47;;
71730;SDS011;65964;43.496;3.710;2023-04-10T07:05:26;16.33;;;7.57;;
71730;SDS011;65964;43.496;3.710;2023-04-10T07:07:52;31.15;;;15.75;;
71730;SDS011;65964;43.496;3.710;2023-04-10T07:10:18;51.90;;;28.92;;
71730;SDS011;65964;43.496;3.710;2023-04-10T07:12:44;30.20;;;15.63;;
71730;SDS011;65964;43.496;3.710;2023-04-10T07:15:10;16.17;;;8.85;;
71730;SDS011;65964;43.496;3.710;2023-04-10T07:17:37;16.40;;;7.25;;
71730;SDS011;65964;43.496;3.710;2023-04-10T07:20:03;12.50;;;5.13;;
71730;SDS011;65964;43.496;3.710;2023-04-10T07:22:29;9.15;;;3.38;;
71730;SDS011;65964;43.496;3.710;2023-04-10T07:24:56;8.32;;;3.00;;
71730;SDS011;65964;43.496;3.710;2023-04-10T07:27:23;9.75;;;3.05;;
71730;SDS011;65964;43.496;3.710;2023-04-10T07:29:49;8.77;;;3.90;;
71730;SDS011;65964;43.496;3.710;2023-04-10T07:32:15;20.65;;;9.18;;
71730;SDS011;65964;43.496;3.710;2023-04-10T07:34:41;16.65;;;8.27;;
71730;SDS011;65964;43.496;3.710;2023-04-10T07:37:08;23.15;;;10.80;;
71730;SDS011;65964;43.496;3.710;2023-04-10T07:39:34;28.60;;;13.13;;
71730;SDS011;65964;43.496;3.710;2023-04-10T07:42:00;27.88;;;13.40;;
71730;SDS011;65964;43.496;3.710;2023-04-10T07:44:26;25.25;;;13.68;;
71730;SDS011;65964;43.496;3.710;2023-04-10T07:46:53;23.30;;;11.60;;
71730;SDS011;65964;43.496;3.710;2023-04-10T07:49:19;25.80;;;12.85;;
71730;SDS011;65964;43.496;3.710;2023-04-10T07:51:45;20.95;;;8.70;;
71730;SDS011;65964;43.496;3.710;2023-04-10T07:54:11;15.35;;;7.63;;
71730;SDS011;65964;43.496;3.710;2023-04-10T07:56:38;14.02;;;5.88;;
71730;SDS011;65964;43.496;3.710;2023-04-10T07:59:04;13.32;;;5.68;;
71730;SDS011;65964;43.496;3.710;2023-04-10T08:01:30;12.90;;;5.97;;
71730;SDS011;65964;43.496;3.710;2023-04-10T08:03:56;10.65;;;4.38;;
71730;SDS011;65964;43.496;3.710;2023-04-10T08:06:22;14.55;;;6.40;;
71730;SDS011;65964;43.496;3.710;2023-04-10T08:08:48;14.02;;;7.10;;
71730;SDS011;65964;43.496;3.710;2023-04-10T08:11:23;15.05;;;6.43;;
71730;SDS011;65964;43.496;3.710;2023-04-10T08:13:53;10.70;;;6.38;;
71730;SDS011;65964;43.496;3.710;2023-04-10T08:16:22;11.27;;;5.63;;
71730;SDS011;65964;43.496;3.710;2023-04-10T08:18:48;11.30;;;4.80;;
71730;SDS011;65964;43.496;3.710;2023-04-10T08:21:14;12.48;;;6.28;;
71730;SDS011;65964;43.496;3.710;2023-04-10T08:23:40;13.38;;;5.70;;
71730;SDS011;65964;43.496;3.710;2023-04-10T08:26:06;14.43;;;6.43;;
71730;SDS011;65964;43.496;3.710;2023-04-10T08:28:32;10.98;;;4.80;;
71730;SDS011;65964;43.496;3.710;2023-04-10T08:30:58;11.07;;;4.55;;
71730;SDS011;65964;43.496;3.710;2023-04-10T08:33:24;11.55;;;3.35;;
71730;SDS011;65964;43.496;3.710;2023-04-10T08:35:50;7.88;;;3.50;;
71730;SDS011;65964;43.496;3.710;2023-04-10T08:38:16;11.93;;;4.28;;
71730;SDS011;65964;43.496;3.710;2023-04-10T08:40:42;6.88;;;3.10;;
71730;SDS011;65964;43.496;3.710;2023-04-10T08:43:08;9.18;;;3.00;;
71730;SDS011;65964;43.496;3.710;2023-04-10T08:45:34;7.05;;;2.80;;
71730;SDS011;65964;43.496;3.710;2023-04-10T08:48:01;7.05;;;3.00;;
71730;SDS011;65964;43.496;3.710;2023-04-10T08:50:27;5.35;;;2.65;;
71730;SDS011;65964;43.496;3.710;2023-04-10T08:52:55;5.53;;;2.40;;
71730;SDS011;65964;43.496;3.710;2023-04-10T08:55:24;7.30;;;2.45;;
71730;SDS011;65964;43.496;3.710;2023-04-10T08:57:51;7.13;;;2.45;;
71730;SDS011;65964;43.496;3.710;2023-04-10T09:00:17;7.95;;;2.60;;
71730;SDS011;65964;43.496;3.710;2023-04-10T09:02:44;5.68;;;2.40;;
71730;SDS011;65964;43.496;3.710;2023-04-10T09:05:10;4.85;;;2.20;;
71730;SDS011;65964;43.496;3.710;2023-04-10T09:07:37;6.88;;;3.00;;
71730;SDS011;65964;43.496;3.710;2023-04-10T09:10:03;5.72;;;2.50;;
71730;SDS011;65964;43.496;3.710;2023-04-10T09:12:34;4.65;;;2.38;;
71730;SDS011;65964;43.496;3.710;2023-04-10T09:15:07;7.60;;;2.30;;
71730;SDS011;65964;43.496;3.710;2023-04-10T09:17:33;5.25;;;2.20;;
71730;SDS011;65964;43.496;3.710;2023-04-10T09:19:59;14.23;;;3.15;;
71730;SDS011;65964;43.496;3.710;2023-04-10T09:22:29;6.78;;;2.35;;
71730;SDS011;65964;43.496;3.710;2023-04-10T09:24:56;5.05;;;2.30;;
71730;SDS011;65964;43.496;3.710;2023-04-10T09:27:30;3.55;;;2.15;;
71730;SDS011;65964;43.496;3.710;2023-04-10T09:29:56;5.45;;;2.40;;
71730;SDS011;65964;43.496;3.710;2023-04-10T09:35:01;5.53;;;2.40;;
71730;SDS011;65964;43.496;3.710;2023-04-10T09:37:31;9.13;;;2.60;;
71730;SDS011;65964;43.496;3.710;2023-04-10T09:39:58;4.03;;;2.00;;
71730;SDS011;65964;43.496;3.710;2023-04-10T09:42:31;5.65;;;2.15;;
71730;SDS011;65964;43.496;3.710;2023-04-10T09:44:57;5.30;;;2.35;;
71730;SDS011;65964;43.496;3.710;2023-04-10T09:47:23;5.05;;;2.20;;
71730;SDS011;65964;43.496;3.710;2023-04-10T09:52:23;6.57;;;2.47;;
71730;SDS011;65964;43.496;3.710;2023-04-10T09:54:50;4.23;;;2.10;;
71730;SDS011;65964;43.496;3.710;2023-04-10T09:57:17;5.65;;;2.40;;
71730;SDS011;65964;43.496;3.710;2023-04-10T10:00:02;4.63;;;2.30;;
71730;SDS011;65964;43.496;3.710;2023-04-10T10:02:30;7.55;;;2.80;;
71730;SDS011;65964;43.496;3.710;2023-04-10T10:04:58;4.95;;;2.80;;
71730;SDS011;65964;43.496;3.710;2023-04-10T10:07:25;17.27;;;3.13;;
71730;SDS011;65964;43.496;3.710;2023-04-10T10:09:51;4.32;;;2.22;;
71730;SDS011;65964;43.496;3.710;2023-04-10T10:12:21;4.90;;;2.10;;
71730;SDS011;65964;43.496;3.710;2023-04-10T10:15:00;5.38;;;2.25;;
71730;SDS011;65964;43.496;3.710;2023-04-10T10:17:29;4.45;;;2.00;;
71730;SDS011;65964;43.496;3.710;2023-04-10T10:22:25;5.88;;;2.60;;
71730;SDS011;65964;43.496;3.710;2023-04-10T10:24:52;5.65;;;2.33;;
71730;SDS011;65964;43.496;3.710;2023-04-10T10:27:20;4.57;;;2.20;;
71730;SDS011;65964;43.496;3.710;2023-04-10T10:29:47;5.03;;;2.00;;
71730;SDS011;65964;43.496;3.710;2023-04-10T10:32:15;4.10;;;2.30;;
71730;SDS011;65964;43.496;3.710;2023-04-10T10:34:42;4.60;;;2.17;;
71730;SDS011;65964;43.496;3.710;2023-04-10T10:37:09;4.22;;;2.20;;
71730;SDS011;65964;43.496;3.710;2023-04-10T10:47:00;27.90;;;14.73;;
71730;SDS011;65964;43.496;3.710;2023-04-10T10:50:02;7.10;;;3.05;;
71730;SDS011;65964;43.496;3.710;2023-04-10T10:58:01;5.00;;;2.10;;
71730;SDS011;65964;43.496;3.710;2023-04-10T11:05:55;5.20;;;2.30;;
71730;SDS011;65964;43.496;3.710;2023-04-10T11:13:23;7.13;;;2.10;;
71730;SDS011;65964;43.496;3.710;2023-04-10T11:15:50;5.85;;;2.05;;
71730;SDS011;65964;43.496;3.710;2023-04-10T11:18:16;3.35;;;2.00;;
71730;SDS011;65964;43.496;3.710;2023-04-10T11:23:30;2.72;;;1.80;;
71730;SDS011;65964;43.496;3.710;2023-04-10T11:25:56;4.85;;;2.10;;
71730;SDS011;65964;43.496;3.710;2023-04-10T11:34:02;5.60;;;2.35;;
71730;SDS011;65964;43.496;3.710;2023-04-10T11:36:28;4.25;;;2.03;;
71730;SDS011;65964;43.496;3.710;2023-04-10T11:41:24;3.80;;;2.05;;
71730;SDS011;65964;43.496;3.710;2023-04-10T11:43:51;3.42;;;1.80;;
71730;SDS011;65964;43.496;3.710;2023-04-10T11:46:17;10.18;;;2.38;;
71730;SDS011;65964;43.496;3.710;2023-04-10T11:48:44;6.40;;;2.10;;
71730;SDS011;65964;43.496;3.710;2023-04-10T11:51:11;4.60;;;2.10;;
71730;SDS011;65964;43.496;3.710;2023-04-10T11:53:38;4.90;;;2.20;;
71730;SDS011;65964;43.496;3.710;2023-04-10T11:56:04;8.15;;;2.30;;
71730;SDS011;65964;43.496;3.710;2023-04-10T11:58:31;4.72;;;2.10;;
71730;SDS011;65964;43.496;3.710;2023-04-10T12:00:58;4.15;;;2.08;;
71730;SDS011;65964;43.496;3.710;2023-04-10T12:03:38;6.55;;;2.28;;
71730;SDS011;65964;43.496;3.710;2023-04-10T12:06:11;4.97;;;2.17;;
71730;SDS011;65964;43.496;3.710;2023-04-10T12:08:41;4.75;;;2.10;;
71730;SDS011;65964;43.496;3.710;2023-04-10T12:11:09;4.68;;;2.20;;
71730;SDS011;65964;43.496;3.710;2023-04-10T12:13:35;4.47;;;2.08;;
71730;SDS011;65964;43.496;3.710;2023-04-10T12:16:10;8.82;;;2.55;;
71730;SDS011;65964;43.496;3.710;2023-04-10T12:18:36;4.50;;;2.00;;
71730;SDS011;65964;43.496;3.710;2023-04-10T12:21:03;5.95;;;2.10;;
71730;SDS011;65964;43.496;3.710;2023-04-10T12:23:30;5.82;;;2.63;;
71730;SDS011;65964;43.496;3.710;2023-04-10T12:26:06;4.43;;;2.35;;
71730;SDS011;65964;43.496;3.710;2023-04-10T12:28:33;7.18;;;2.50;;
71730;SDS011;65964;43.496;3.710;2023-04-10T12:30:59;6.10;;;2.45;;
71730;SDS011;65964;43.496;3.710;2023-04-10T12:33:25;7.93;;;2.63;;
71730;SDS011;65964;43.496;3.710;2023-04-10T12:35:51;5.20;;;2.25;;
71730;SDS011;65964;43.496;3.710;2023-04-10T12:38:33;5.78;;;2.50;;
71730;SDS011;65964;43.496;3.710;2023-04-10T12:41:00;5.63;;;2.63;;
71730;SDS011;65964;43.496;3.710;2023-04-10T12:43:33;6.68;;;2.08;;
71730;SDS011;65964;43.496;3.710;2023-04-10T12:45:59;9.82;;;2.22;;
71730;SDS011;65964;43.496;3.710;2023-04-10T12:48:25;5.00;;;2.35;;
71730;SDS011;65964;43.496;3.710;2023-04-10T12:50:51;5.43;;;1.92;;
71730;SDS011;65964;43.496;3.710;2023-04-10T12:53:17;4.10;;;2.05;;
71730;SDS011;65964;43.496;3.710;2023-04-10T12:56:02;3.78;;;2.00;;
71730;SDS011;65964;43.496;3.710;2023-04-10T12:58:30;5.68;;;1.77;;
71730;SDS011;65964;43.496;3.710;2023-04-10T13:01:05;7.47;;;2.17;;
71730;SDS011;65964;43.496;3.710;2023-04-10T13:03:37;6.22;;;1.80;;
71730;SDS011;65964;43.496;3.710;2023-04-10T13:06:04;6.82;;;1.80;;
71730;SDS011;65964;43.496;3.710;2023-04-10T13:08:34;5.28;;;1.70;;
71730;SDS011;65964;43.496;3.710;2023-04-10T13:11:00;5.60;;;1.65;;
71730;SDS011;65964;43.496;3.710;2023-04-10T13:13:29;3.45;;;1.67;;
71730;SDS011;65964;43.496;3.710;2023-04-10T13:15:56;2.83;;;1.65;;
71730;SDS011;65964;43.496;3.710;2023-04-10T13:18:22;5.30;;;1.95;;
71730;SDS011;65964;43.496;3.710;2023-04-10T13:20:48;4.03;;;1.60;;
71730;SDS011;65964;43.496;3.710;2023-04-10T13:23:14;4.05;;;1.60;;
71730;SDS011;65964;43.496;3.710;2023-04-10T13:25:40;3.78;;;1.83;;
71730;SDS011;65964;43.496;3.710;2023-04-10T13:28:07;5.20;;;2.00;;
71730;SDS011;65964;43.496;3.710;2023-04-10T13:30:39;5.28;;;1.70;;
71730;SDS011;65964;43.496;3.710;2023-04-10T13:33:06;3.58;;;1.60;;
71730;SDS011;65964;43.496;3.710;2023-04-10T13:35:32;6.78;;;1.80;;
71730;SDS011;65964;43.496;3.710;2023-04-10T13:37:59;6.03;;;1.70;;
71730;SDS011;65964;43.496;3.710;2023-04-10T13:40:25;4.35;;;1.70;;
71730;SDS011;65964;43.496;3.710;2023-04-10T13:42:51;5.82;;;2.17;;
71730;SDS011;65964;43.496;3.710;2023-04-10T13:45:17;3.25;;;1.70;;
71730;SDS011;65964;43.496;3.710;2023-04-10T13:47:43;7.32;;;2.20;;
71730;SDS011;65964;43.496;3.710;2023-04-10T13:50:09;8.32;;;2.00;;
71730;SDS011;65964;43.496;3.710;2023-04-10T13:52:35;4.85;;;2.00;;
71730;SDS011;65964;43.496;3.710;2023-04-10T13:55:02;5.68;;;1.95;;
71730;SDS011;65964;43.496;3.710;2023-04-10T13:57:28;5.32;;;1.80;;
71730;SDS011;65964;43.496;3.710;2023-04-10T13:59:54;5.45;;;1.80;;
71730;SDS011;65964;43.496;3.710;2023-04-10T14:02:20;7.57;;;1.90;;
71730;SDS011;65964;43.496;3.710;2023-04-10T14:04:46;3.58;;;1.58;;
71730;SDS011;65964;43.496;3.710;2023-04-10T14:07:12;5.05;;;1.88;;
71730;SDS011;65964;43.496;3.710;2023-04-10T14:09:38;6.15;;;2.00;;
71730;SDS011;65964;43.496;3.710;2023-04-10T14:12:04;10.40;;;2.95;;
71730;SDS011;65964;43.496;3.710;2023-04-10T14:14:30;6.68;;;2.10;;
71730;SDS011;65964;43.496;3.710;2023-04-10T14:16:56;5.65;;;1.95;;
71730;SDS011;65964;43.496;3.710;2023-04-10T14:19:22;7.63;;;2.08;;
71730;SDS011;65964;43.496;3.710;2023-04-10T14:21:48;5.63;;;1.80;;
71730;SDS011;65964;43.496;3.710;2023-04-10T14:24:14;5.20;;;1.85;;
71730;SDS011;65964;43.496;3.710;2023-04-10T14:26:40;4.90;;;1.90;;
71730;SDS011;65964;43.496;3.710;2023-04-10T14:29:06;7.25;;;1.90;;
71730;SDS011;65964;43.496;3.710;2023-04-10T14:31:33;6.30;;;2.20;;
71730;SDS011;65964;43.496;3.710;2023-04-10T14:33:59;7.20;;;2.00;;
71730;SDS011;65964;43.496;3.710;2023-04-10T14:36:25;6.53;;;2.13;;
71730;SDS011;65964;43.496;3.710;2023-04-10T14:38:51;9.15;;;2.10;;
71730;SDS011;65964;43.496;3.710;2023-04-10T14:41:18;6.88;;;2.15;;
71730;SDS011;65964;43.496;3.710;2023-04-10T14:43:44;6.68;;;2.13;;
71730;SDS011;65964;43.496;3.710;2023-04-10T14:46:10;7.05;;;2.10;;
71730;SDS011;65964;43.496;3.710;2023-04-10T14:48:36;5.35;;;1.92;;
71730;SDS011;65964;43.496;3.710;2023-04-10T14:51:02;5.03;;;1.95;;
71730;SDS011;65964;43.496;3.710;2023-04-10T14:53:29;3.33;;;1.63;;
71730;SDS011;65964;43.496;3.710;2023-04-10T14:55:55;6.88;;;2.00;;
71730;SDS011;65964;43.496;3.710;2023-04-10T14:58:21;6.13;;;2.00;;
71730;SDS011;65964;43.496;3.710;2023-04-10T15:00:47;7.45;;;2.20;;
71730;SDS011;65964;43.496;3.710;2023-04-10T15:03:14;9.52;;;2.10;;
71730;SDS011;65964;43.496;3.710;2023-04-10T15:05:40;5.93;;;2.00;;
71730;SDS011;65964;43.496;3.710;2023-04-10T15:08:06;7.30;;;2.30;;
71730;SDS011;65964;43.496;3.710;2023-04-10T15:10:32;6.93;;;2.30;;
71730;SDS011;65964;43.496;3.710;2023-04-10T15:12:58;9.60;;;2.28;;
71730;SDS011;65964;43.496;3.710;2023-04-10T15:15:24;7.85;;;2.00;;
71730;SDS011;65964;43.496;3.710;2023-04-10T15:17:50;6.65;;;2.20;;
71730;SDS011;65964;43.496;3.710;2023-04-10T15:20:16;5.72;;;2.10;;
71730;SDS011;65964;43.496;3.710;2023-04-10T15:22:42;6.55;;;2.00;;
71730;SDS011;65964;43.496;3.710;2023-04-10T15:25:09;8.02;;;2.00;;
71730;SDS011;65964;43.496;3.710;2023-04-10T15:27:36;7.68;;;2.10;;
71730;SDS011;65964;43.496;3.710;2023-04-10T15:30:03;7.65;;;2.17;;
71730;SDS011;65964;43.496;3.710;2023-04-10T15:32:29;7.93;;;2.28;;
71730;SDS011;65964;43.496;3.710;2023-04-10T15:34:55;9.27;;;2.35;;
71730;SDS011;65964;43.496;3.710;2023-04-10T15:37:21;6.25;;;2.38;;
71730;SDS011;65964;43.496;3.710;2023-04-10T15:39:49;7.60;;;2.35;;
71730;SDS011;65964;43.496;3.710;2023-04-10T15:42:15;9.10;;;2.20;;
71730;SDS011;65964;43.496;3.710;2023-04-10T15:44:44;6.65;;;2.17;;